createdAt,value
2022-11-16T00:00:36.632Z,111.20
2022-11-16T00:03:39.719Z,111.97
2022-11-16T00:06:42.424Z,107.60
2022-11-16T00:09:46.865Z,98.63
2022-11-16T00:12:50.361Z,105.40
2022-11-16T00:15:58.062Z,105.95
2022-11-16T00:19:03.815Z,111.72
2022-11-16T00:22:07.009Z,115.50
2022-11-16T00:25:10.210Z,118.15
2022-11-16T00:28:13.608Z,121.10
2022-11-16T00:31:16.496Z,119.00
2022-11-16T00:34:20.008Z,107.70
2022-11-16T00:37:23.608Z,107.83
2022-11-16T00:40:26.808Z,128.48
2022-11-16T00:43:30.195Z,105.05
2022-11-16T00:46:33.290Z,105.88
2022-11-16T00:49:38.845Z,110.85
2022-11-16T00:52:42.546Z,104.77
2022-11-16T00:55:47.391Z,115.50
2022-11-16T00:58:53.450Z,117.00
2022-11-16T01:01:57.674Z,103.47
2022-11-16T01:05:01.893Z,104.28
2022-11-16T01:08:06.928Z,101.53
2022-11-16T01:11:30.400Z,109.88
2022-11-16T01:14:39.216Z,105.85
2022-11-16T01:17:43.143Z,107.70
2022-11-16T01:20:47.567Z,126.95
2022-11-16T01:23:52.091Z,119.60
2022-11-16T01:26:58.667Z,118.57
2022-11-16T01:30:07.081Z,111.15
2022-11-16T01:33:13.046Z,123.90
2022-11-16T01:36:16.436Z,114.43
2022-11-16T01:39:19.333Z,115.43
2022-11-16T01:42:32.039Z,133.27
2022-11-16T01:45:43.987Z,116.75
2022-11-16T01:48:53.106Z,118.88
2022-11-16T01:51:59.753Z,121.72
2022-11-16T01:55:04.312Z,128.70
2022-11-16T01:58:20.494Z,120.25
2022-11-16T02:01:27.770Z,128.05
2022-11-16T02:04:33.404Z,145.93
2022-11-16T02:08:25.817Z,136.82
2022-11-16T02:11:57.463Z,126.80
2022-11-16T02:15:19.302Z,145.52
2022-11-16T02:18:33.110Z,153.65
2022-11-16T02:21:43.473Z,134.57
2022-11-16T02:25:06.924Z,143.70
2022-11-16T02:28:12.081Z,131.97
2022-11-16T02:31:26.392Z,135.55
2022-11-16T02:34:34.438Z,129.40
2022-11-16T02:37:40.693Z,133.95
2022-11-16T02:40:46.793Z,116.05
2022-11-16T02:44:16.110Z,115.83
2022-11-16T02:47:22.938Z,107.50
2022-11-16T02:50:27.166Z,107.28
2022-11-16T02:53:33.162Z,121.70
2022-11-16T02:56:54.044Z,117.75
2022-11-16T03:00:00.759Z,112.50
2022-11-16T03:03:18.180Z,131.55
2022-11-16T03:06:31.661Z,117.93
2022-11-16T03:09:36.425Z,127.45
2022-11-16T03:12:40.992Z,162.82
2022-11-16T03:15:43.462Z,167.30
2022-11-16T03:18:50.039Z,169.35
2022-11-16T03:21:57.633Z,137.30
2022-11-16T03:25:00.126Z,151.55
2022-11-16T03:28:06.545Z,146.32
2022-11-16T03:31:15.281Z,160.07
2022-11-16T03:34:21.028Z,163.02
2022-11-16T03:37:24.465Z,128.52
2022-11-16T03:40:29.538Z,128.80
2022-11-16T03:43:33.079Z,132.35
2022-11-16T03:46:36.617Z,120.83
2022-11-16T03:49:44.530Z,136.27
2022-11-16T03:52:46.871Z,119.15
2022-11-16T03:55:50.191Z,121.55
2022-11-16T03:58:53.537Z,141.32
2022-11-16T04:01:55.709Z,122.70
2022-11-16T04:05:16.915Z,130.50
2022-11-16T04:08:37.655Z,120.78
2022-11-16T04:11:59.299Z,130.68
2022-11-16T04:15:21.807Z,121.55
2022-11-16T04:18:43.161Z,108.47
2022-11-16T04:22:10.122Z,115.25
2022-11-16T04:25:22.301Z,126.45
2022-11-16T04:28:28.398Z,113.75
2022-11-16T04:31:52.416Z,114.10
2022-11-16T04:35:13.673Z,106.33
2022-11-16T04:38:18.283Z,107.57
2022-11-16T04:41:39.498Z,112.25
2022-11-16T04:45:00.269Z,101.32
2022-11-16T04:48:09.041Z,113.95
2022-11-16T04:51:12.626Z,105.30
2022-11-16T04:54:15.038Z,105.10
2022-11-16T04:57:17.778Z,108.93
2022-11-16T05:00:21.720Z,100.60
2022-11-16T05:03:25.184Z,99.07
2022-11-16T05:06:27.466Z,90.73
2022-11-16T05:09:30.323Z,92.60
2022-11-16T05:12:33.373Z,94.60
2022-11-16T05:15:38.148Z,93.40
2022-11-16T05:18:40.415Z,89.75
2022-11-16T05:21:44.041Z,101.13
2022-11-16T05:24:46.310Z,87.55
2022-11-16T05:27:48.670Z,94.28
2022-11-16T05:30:51.235Z,92.30
2022-11-16T05:33:57.761Z,92.35
2022-11-16T05:37:00.392Z,90.83
2022-11-16T05:40:03.063Z,81.03
2022-11-16T05:43:14.519Z,87.07
2022-11-16T05:46:25.804Z,78.47
2022-11-16T05:49:30.859Z,79.72
2022-11-16T05:52:34.291Z,81.30
2022-11-16T05:55:41.052Z,94.65
2022-11-16T05:58:44.106Z,84.68
2022-11-16T06:01:46.961Z,83.63
2022-11-16T06:04:49.101Z,71.28
2022-11-16T06:07:51.335Z,76.70
2022-11-16T06:10:53.637Z,70.75
2022-11-16T06:13:55.887Z,73.72
2022-11-16T06:16:58.180Z,65.38
2022-11-16T06:20:00.718Z,60.88
2022-11-16T06:23:03.380Z,62.07
2022-11-16T06:26:06.718Z,66.57
2022-11-16T06:29:09.734Z,58.90
2022-11-16T06:32:11.926Z,63.70
2022-11-16T06:35:14.524Z,58.80
2022-11-16T06:38:20.699Z,62.40
2022-11-16T06:41:26.092Z,68.10
2022-11-16T06:44:28.648Z,63.10
2022-11-16T06:47:36.078Z,62.08
2022-11-16T06:50:38.934Z,67.35
2022-11-16T06:53:42.357Z,74.03
2022-11-16T06:56:44.562Z,66.90
2022-11-16T06:59:46.814Z,72.55
2022-11-16T07:02:49.119Z,67.85
2022-11-16T07:05:54.540Z,68.70
2022-11-16T07:08:57.229Z,71.50
2022-11-16T07:12:04.646Z,78.28
2022-11-16T07:15:11.529Z,67.10
2022-11-16T07:18:16.002Z,69.07
2022-11-16T07:21:18.834Z,67.50
2022-11-16T07:24:21.158Z,63.20
2022-11-16T07:27:23.530Z,71.13
2022-11-16T07:30:27.493Z,71.38
2022-11-16T07:33:37.318Z,74.72
2022-11-16T07:36:57.790Z,72.57
2022-11-16T07:40:00.005Z,66.70
2022-11-16T07:43:03.529Z,71.63
2022-11-16T07:49:43.591Z,71.22
2022-11-16T07:52:49.908Z,64.32
2022-11-16T07:55:55.929Z,71.47
2022-11-16T07:58:59.722Z,76.35
2022-11-16T08:02:03.100Z,72.45
2022-11-16T08:05:07.209Z,76.65
2022-11-16T08:08:12.189Z,73.82
2022-11-16T08:11:16.506Z,80.57
2022-11-16T08:14:20.416Z,75.03
2022-11-16T08:17:25.680Z,71.53
2022-11-16T08:20:29.279Z,85.57
2022-11-16T08:23:32.128Z,81.47
2022-11-16T08:26:34.810Z,76.30
2022-11-16T08:29:42.473Z,80.65
2022-11-16T08:32:45.889Z,79.18
2022-11-16T08:35:51.438Z,82.47
2022-11-16T08:38:55.047Z,80.57
2022-11-16T08:42:00.086Z,73.23
2022-11-16T08:45:04.305Z,82.72
2022-11-16T08:48:07.399Z,75.72
2022-11-16T08:51:19.184Z,73.47
2022-11-16T08:54:29.143Z,68.10
2022-11-16T08:57:31.760Z,69.87
2022-11-16T09:00:37.602Z,74.30
2022-11-16T09:03:40.207Z,75.53
2022-11-16T09:06:42.383Z,84.28
2022-11-16T09:09:44.546Z,77.43
2022-11-16T09:12:46.716Z,78.07
2022-11-16T09:15:55.965Z,83.53
2022-11-16T09:18:59.279Z,79.93
2022-11-16T09:22:01.430Z,81.53
2022-11-16T09:25:04.025Z,81.72
2022-11-16T09:28:06.241Z,87.83
2022-11-16T09:31:10.506Z,88.70
2022-11-16T09:34:13.898Z,81.10
2022-11-16T09:37:17.001Z,119.45
2022-11-16T09:40:20.595Z,83.75
2022-11-16T09:43:29.707Z,74.90
2022-11-16T09:46:35.585Z,79.97
2022-11-16T09:49:41.140Z,80.13
2022-11-16T09:52:46.630Z,81.40
2022-11-16T09:56:14.507Z,79.60
2022-11-16T09:59:29.961Z,86.77
2022-11-16T10:02:44.254Z,96.38
2022-11-16T10:06:03.332Z,85.38
2022-11-16T10:09:05.676Z,87.47
2022-11-16T10:12:28.748Z,92.85
2022-11-16T10:15:41.696Z,82.47
2022-11-16T10:18:56.385Z,77.68
2022-11-16T10:22:06.879Z,85.28
2022-11-16T10:25:16.473Z,80.32
2022-11-16T10:28:46.414Z,81.07
2022-11-16T10:31:51.622Z,83.87
2022-11-16T10:34:56.709Z,83.78
2022-11-16T10:38:03.125Z,84.07
2022-11-16T10:41:19.734Z,81.22
2022-11-16T10:44:34.602Z,73.38
2022-11-16T10:47:42.705Z,82.17
2022-11-16T10:50:47.217Z,86.15
2022-11-16T10:53:49.632Z,80.20
2022-11-16T10:57:15.083Z,78.03
2022-11-16T11:00:34.812Z,77.72
2022-11-16T11:03:37.247Z,83.17
2022-11-16T11:06:40.282Z,89.78
2022-11-16T11:09:43.333Z,78.88
2022-11-16T11:13:06.860Z,75.68
2022-11-16T11:16:17.626Z,77.82
2022-11-16T11:19:25.765Z,75.83
2022-11-16T11:22:28.082Z,75.50
2022-11-16T11:25:37.356Z,74.30
2022-11-16T11:28:47.233Z,74.72
2022-11-16T11:31:51.971Z,72.97
2022-11-16T11:34:54.876Z,67.67
2022-11-16T11:38:04.726Z,71.75
2022-11-16T11:41:18.879Z,69.75
2022-11-16T11:44:21.013Z,63.58
2022-11-16T11:47:59.016Z,74.55
2022-11-16T11:51:15.748Z,80.13
2022-11-16T11:54:28.659Z,71.03
2022-11-16T11:57:33.328Z,91.72
2022-11-16T12:00:44.516Z,71.78
2022-11-16T12:04:13.547Z,78.75
2022-11-16T12:07:15.647Z,76.27
2022-11-16T12:10:29.192Z,74.60
2022-11-16T12:14:08.981Z,69.68
2022-11-16T12:17:49.128Z,82.53
2022-11-16T12:21:18.636Z,72.43
2022-11-16T12:24:29.921Z,81.37
2022-11-16T12:27:46.021Z,84.25
2022-11-16T12:31:20.959Z,91.32
2022-11-16T12:34:42.793Z,89.18
2022-11-16T12:38:30.322Z,85.57
2022-11-16T12:41:50.621Z,84.53
2022-11-16T12:45:11.660Z,92.95
2022-11-16T12:48:42.052Z,90.25
2022-11-16T12:52:20.111Z,86.30
2022-11-16T12:56:03.882Z,89.38
2022-11-16T12:59:17.855Z,93.17
2022-11-16T13:02:38.261Z,87.85
2022-11-16T13:05:49.231Z,106.45
2022-11-16T13:09:10.149Z,89.28
2022-11-16T13:12:17.190Z,88.32
2022-11-16T13:15:21.922Z,95.63
2022-11-16T13:18:25.002Z,84.88
2022-11-16T13:21:38.638Z,82.57
2022-11-16T13:24:52.674Z,84.15
2022-11-16T13:28:10.444Z,84.38
2022-11-16T13:31:16.997Z,79.33
2022-11-16T13:34:25.768Z,78.97
2022-11-16T13:37:38.873Z,77.47
2022-11-16T13:40:42.178Z,89.93
2022-11-16T13:43:49.148Z,81.25
2022-11-16T13:46:57.196Z,74.20
2022-11-16T13:50:01.634Z,74.82
2022-11-16T13:56:55.080Z,105.53
2022-11-16T14:00:03.905Z,83.38
2022-11-16T14:03:27.822Z,93.03
2022-11-16T14:06:30.619Z,82.35
2022-11-16T14:09:59.721Z,78.45
2022-11-16T14:13:06.399Z,75.05
2022-11-16T14:16:15.343Z,71.93
2022-11-16T14:19:44.126Z,82.57
2022-11-16T14:23:13.128Z,83.72
2022-11-16T14:26:41.414Z,82.68
2022-11-16T14:30:19.489Z,205.95
2022-11-16T14:33:33.465Z,149.00
2022-11-16T14:36:40.537Z,119.77
2022-11-16T14:39:43.587Z,108.82
2022-11-16T14:43:15.511Z,89.05
2022-11-16T14:46:22.098Z,88.32
2022-11-16T14:49:26.113Z,82.95
2022-11-16T14:52:34.459Z,88.13
2022-11-16T14:55:43.289Z,88.68
2022-11-16T14:59:00.002Z,89.85
2022-11-16T15:02:14.975Z,97.43
2022-11-16T15:05:23.293Z,90.38
2022-11-16T15:08:32.218Z,84.33
2022-11-16T15:11:58.460Z,89.95
2022-11-16T15:15:05.423Z,91.05
2022-11-16T15:18:13.094Z,85.50
2022-11-16T15:21:22.653Z,90.43
2022-11-16T15:24:31.441Z,90.57
2022-11-16T15:27:36.912Z,89.93
2022-11-16T15:30:40.725Z,146.65
2022-11-16T15:33:45.469Z,99.20
2022-11-16T15:36:48.846Z,116.43
2022-11-16T15:39:51.064Z,133.77
2022-11-16T15:42:53.827Z,145.98
2022-11-16T15:45:56.193Z,120.53
2022-11-16T15:48:58.684Z,111.47
2022-11-16T15:52:02.231Z,99.85
2022-11-16T15:55:05.683Z,116.13
2022-11-16T15:58:28.269Z,102.78
2022-11-16T16:01:31.509Z,97.15
2022-11-16T16:04:34.859Z,90.32
2022-11-16T16:07:42.774Z,86.30
2022-11-16T16:10:45.867Z,88.50
2022-11-16T16:14:04.829Z,88.93
2022-11-16T16:17:10.276Z,83.15
2022-11-16T16:20:18.900Z,98.05
2022-11-16T16:23:25.224Z,91.63
2022-11-16T16:26:27.404Z,94.43
2022-11-16T16:29:29.569Z,102.50
2022-11-16T16:32:33.797Z,111.10
2022-11-16T16:35:36.240Z,97.20
2022-11-16T16:38:38.950Z,97.75
2022-11-16T16:41:41.373Z,93.30
2022-11-16T16:44:44.930Z,88.15
2022-11-16T16:47:47.940Z,103.35
2022-11-16T16:50:50.202Z,93.32
2022-11-16T16:53:52.977Z,99.15
2022-11-16T16:56:57.631Z,99.57
2022-11-16T17:00:00.359Z,102.80
2022-11-16T17:03:02.776Z,102.10
2022-11-16T17:06:05.529Z,105.60
2022-11-16T17:09:07.906Z,103.88
2022-11-16T17:12:13.246Z,114.07
2022-11-16T17:15:19.324Z,116.45
2022-11-16T17:18:22.919Z,110.32
2022-11-16T17:21:25.390Z,100.47
2022-11-16T17:24:28.079Z,95.68
2022-11-16T17:27:31.460Z,98.80
2022-11-16T17:30:35.459Z,87.95
2022-11-16T17:33:39.712Z,103.15
2022-11-16T17:36:43.351Z,90.13
2022-11-16T17:39:45.841Z,98.30
2022-11-16T17:42:48.311Z,90.47
2022-11-16T17:45:50.619Z,92.82
2022-11-16T17:48:53.546Z,79.22
2022-11-16T17:51:56.059Z,78.70
2022-11-16T17:54:58.781Z,85.60
2022-11-16T17:58:01.666Z,85.63
2022-11-16T18:01:04.670Z,104.38
2022-11-16T18:04:07.689Z,86.57
2022-11-16T18:07:12.346Z,86.85
2022-11-16T18:10:19.503Z,84.55
2022-11-16T18:13:22.315Z,77.40
2022-11-16T18:16:28.189Z,78.28
2022-11-16T18:19:30.937Z,71.32
2022-11-16T18:22:33.272Z,74.35
2022-11-16T18:25:36.950Z,68.90
2022-11-16T18:28:39.974Z,63.83
2022-11-16T18:31:43.203Z,64.85
2022-11-16T18:34:45.855Z,77.90
2022-11-16T18:37:50.876Z,76.03
2022-11-16T18:41:22.086Z,62.55
2022-11-16T18:44:25.857Z,64.87
2022-11-16T18:47:28.469Z,69.88
2022-11-16T18:50:32.000Z,68.63
2022-11-16T18:53:35.126Z,71.07
2022-11-16T18:56:38.750Z,77.22
2022-11-16T18:59:41.561Z,78.33
2022-11-16T19:02:44.746Z,70.88
2022-11-16T19:05:56.973Z,65.80
2022-11-16T19:09:03.893Z,71.35
2022-11-16T19:12:07.682Z,93.82
2022-11-16T19:15:11.493Z,79.67
2022-11-16T19:18:21.507Z,89.03
2022-11-16T19:21:25.974Z,66.70
2022-11-16T19:24:29.371Z,68.57
2022-11-16T19:27:33.044Z,58.97
2022-11-16T19:30:38.230Z,64.73
2022-11-16T19:33:41.471Z,88.13
2022-11-16T19:36:43.701Z,77.60
2022-11-16T19:39:46.597Z,62.55
2022-11-16T19:42:49.170Z,62.97
2022-11-16T19:45:52.049Z,64.53
2022-11-16T19:48:56.054Z,72.88
2022-11-16T19:51:59.933Z,86.88
2022-11-16T19:55:03.140Z,61.67
2022-11-16T19:58:06.403Z,66.30
2022-11-16T20:01:21.955Z,64.07
2022-11-16T20:04:27.046Z,60.95
2022-11-16T20:07:30.526Z,54.42
2022-11-16T20:10:33.857Z,59.88
2022-11-16T20:13:38.845Z,56.78
2022-11-16T20:16:43.888Z,59.40
2022-11-16T20:19:46.379Z,63.78
2022-11-16T20:22:51.584Z,69.15
2022-11-16T20:25:54.906Z,65.25
2022-11-16T20:28:57.870Z,67.57
2022-11-16T20:32:00.533Z,70.50
2022-11-16T20:35:03.685Z,68.22
2022-11-16T20:38:06.600Z,73.00
2022-11-16T20:41:12.947Z,64.93
2022-11-16T20:44:22.351Z,65.13
2022-11-16T20:47:24.828Z,60.40
2022-11-16T20:50:28.252Z,67.18
2022-11-16T20:53:32.177Z,72.35
2022-11-16T20:56:36.704Z,63.50
2022-11-16T20:59:39.107Z,61.45
2022-11-16T21:02:41.286Z,54.20
2022-11-16T21:05:44.782Z,57.92
2022-11-16T21:08:47.012Z,52.28
2022-11-16T21:12:15.340Z,48.22
2022-11-16T21:15:17.643Z,49.15
2022-11-16T21:18:19.785Z,50.30
2022-11-16T21:21:23.178Z,49.42
2022-11-16T21:24:27.582Z,47.90
2022-11-16T21:27:29.794Z,47.92
2022-11-16T21:30:32.104Z,44.35
2022-11-16T21:33:34.465Z,44.13
2022-11-16T21:36:36.890Z,45.30
2022-11-16T21:39:39.630Z,45.47
2022-11-16T21:42:42.096Z,47.72
2022-11-16T21:45:45.361Z,46.10
2022-11-16T21:48:51.392Z,44.70
2022-11-16T21:51:53.660Z,63.60
2022-11-16T21:55:01.461Z,46.38
2022-11-16T21:58:03.671Z,50.35
2022-11-16T22:01:06.747Z,54.47
2022-11-16T22:04:27.322Z,49.03
2022-11-16T22:07:38.380Z,46.13
2022-11-16T22:10:40.586Z,48.85
2022-11-16T22:13:45.271Z,44.60
2022-11-16T22:16:47.599Z,46.00
2022-11-16T22:19:49.764Z,46.20
2022-11-16T22:22:51.933Z,49.28
2022-11-16T22:25:54.521Z,53.92
2022-11-16T22:28:58.131Z,48.40
2022-11-16T22:32:00.302Z,45.28
2022-11-16T22:35:02.444Z,50.70
2022-11-16T22:38:05.322Z,44.53
2022-11-16T22:41:07.505Z,42.75
2022-11-16T22:44:09.751Z,45.83
2022-11-16T22:47:11.951Z,46.42
2022-11-16T22:50:14.160Z,43.67
2022-11-16T22:53:16.332Z,45.67
2022-11-16T22:56:18.487Z,45.83
2022-11-16T22:59:20.652Z,47.00
2022-11-16T23:02:22.843Z,43.90
2022-11-16T23:05:25.065Z,47.53
2022-11-16T23:08:27.642Z,41.38
2022-11-16T23:11:48.246Z,44.72
2022-11-16T23:15:08.638Z,45.35
2022-11-16T23:18:10.826Z,43.42
2022-11-16T23:21:31.411Z,42.90
2022-11-16T23:24:51.916Z,39.03
2022-11-16T23:27:57.476Z,40.35
2022-11-16T23:30:59.581Z,45.25
2022-11-16T23:34:01.733Z,45.63
2022-11-16T23:37:05.610Z,44.93
2022-11-16T23:40:08.377Z,44.90
2022-11-16T23:43:49.143Z,40.60
2022-11-16T23:46:51.345Z,43.55
2022-11-16T23:49:53.523Z,45.25
2022-11-16T23:52:55.661Z,42.17
2022-11-16T23:56:05.846Z,45.55
2022-11-16T23:59:08.388Z,44.58
